Terminal Aerodrome Forecast
Issued by NWS Charleston, WV

Current Version | Previous Version | Text Only | Print | Product List | Glossary Off
Versions: 1 2 3 4 5 6 7 8 9 10 11 12 13 14 15 16 17 18 19 20 21 22 23

000
FTUS41 KRLX 231500 AAA
TAFBKW
TAF AMD
KBKW 231515Z 2315/2412 14009KT P6SM BKN050
     FM231700 15013G18KT P6SM BKN045
     FM240200 15011G17KT P6SM -SHRA BKN030
     FM240400 15008KT 3SM -SHRA BR OVC025
     FM241000 16012G18KT 3SM -SHRA BR OVC015=

USA.gov is the U.S. government's official web portal to all federal, state and local government web resources and services.